KCKN

Crookston Municipal Kirkwood Field Airport

Crookston, Minnesota, USA

KCKN 110855Z AUTO 22007KT 10SM BKN028 OVC036 00/M01 A2969 RMK AO2 P0001

Observed Flight Rules
Dec-11 @ 08:55 UTC (30 minutes ago) Marginal Visual Flight Rules
Wind Visibility Clouds
220° at 7 knots 10 miles
  • Broken at 2,800' AGL
  • Overcast at 3,600' AGL
Temperatures Readings Precipitation
Current 0°C / 32°F
Dewpoint -1°C / 30°F
Humidity 93%
Altimeter 29.69" Hg
Pressure 1005 hPa
Elevation 273
Current Rain 0.01
Observed Flight Rules
Dec-11 @ 08:55 UTC
(30 minutes ago)
MVFR
Wind Visibility
220° at 7 knots 10 miles
Clouds
  • Broken at 2,800' AGL
  • Overcast at 3,600' AGL
Temperature Dewpoint
0°C / 32°F -1°C / 30°F
Humidity Altimeter Pressure
93% 29.69" Hg 1005 hPa
Current Rain
0.01